Time;durP1;ratioP1;P1;durP2;ratioP2;P2;SDS_P1;SDS_P2;PMS_P1;PMS_P2;Temp;Humidity;BMP_temperature;BMP_pressure;BME280_temperature;BME280_humidity;BME280_pressure;Samples;Min_cycle;Max_cycle;Signal;HPM_P1;HPM_P2
2021/03/03 00:01:43;;;;;;;16.92;11.55;;;;;;;;;;5037045;28;20475;-58
2021/03/03 00:04:29;;;;;;;30.10;10.80;;;;;;;;;;5036992;28;20024;-59
2021/03/03 00:06:55;;;;;;;14.20;11.50;;;;;;;;;;4942296;28;20402;-59
2021/03/03 00:09:37;;;;;;;;;;;;;;;;;;;;;
2021/03/03 00:12:15;;;;;;;19.33;10.68;;;;;;;;;;5036653;28;20025;-59
2021/03/03 00:17:49;;;;;;;15.70;10.60;;;;;;;;;;5033877;28;20383;-59
2021/03/03 00:20:19;;;;;;;18.48;13.13;;;;;;;;;;5015588;28;20044;-57
2021/03/03 00:22:51;;;;;;;17.30;13.07;;;;;;;;;;5036714;28;20371;-59
2021/03/03 00:25:23;;;;;;;17.20;11.32;;;;;;;;;;5032759;28;20064;-59
2021/03/03 00:28:14;;;;;;;21.00;13.68;;;;;;;;;;5035974;28;20029;-59
2021/03/03 00:30:44;;;;;;;21.63;13.00;;;;;;;;;;5035423;28;20034;-59
2021/03/03 00:33:29;;;;;;;25.83;13.25;;;;;;;;;;5036262;28;20483;-59
2021/03/03 00:35:58;;;;;;;18.67;12.90;;;;;;;;;;5003905;28;20037;-58
2021/03/03 00:38:37;;;;;;;17.75;11.95;;;;;;;;;;5035884;28;20053;-59
2021/03/03 00:41:19;;;;;;;14.85;12.77;;;;;;;;;;5033250;28;20539;-58
2021/03/03 00:43:49;;;;;;;17.63;12.27;;;;;;;;;;5037165;28;20116;-58
2021/03/03 00:46:27;;;;;;;18.35;13.85;;;;;;;;;;5035507;28;20029;-59
2021/03/03 00:49:09;;;;;;;19.30;12.82;;;;;;;;;;5035961;28;20068;-59
2021/03/03 00:54:43;;;;;;;15.23;12.27;;;;;;;;;;5035758;28;20037;-58
2021/03/03 00:57:19;;;;;;;17.15;12.30;;;;;;;;;;5017484;28;20088;-59
2021/03/03 01:02:48;;;;;;;19.35;11.45;;;;;;;;;;5035384;28;20049;-59
2021/03/03 01:05:30;;;;;;;21.50;13.07;;;;;;;;;;5018291;28;20375;-59
2021/03/03 01:08:26;;;;;;;23.90;12.48;;;;;;;;;;5018364;28;20482;-59
2021/03/03 01:10:53;;;;;;;18.98;13.23;;;;;;;;;;5036092;28;20029;-58
2021/03/03 01:13:39;;;;;;;24.45;11.68;;;;;;;;;;5018702;28;20025;-59
2021/03/03 01:19:05;;;;;;;20.08;12.63;;;;;;;;;;5034243;28;20393;-59
2021/03/03 01:21:50;;;;;;;17.38;12.30;;;;;;;;;;5035179;28;20025;-58
2021/03/03 01:24:22;;;;;;;20.08;11.88;;;;;;;;;;5015786;28;20124;-58
2021/03/03 01:26:55;;;;;;;15.68;11.15;;;;;;;;;;5017937;28;20455;-58
2021/03/03 01:29:30;;;;;;;16.25;11.55;;;;;;;;;;5035235;28;20029;-57
2021/03/03 01:32:29;;;;;;;16.92;12.10;;;;;;;;;;5035398;28;20025;-59
2021/03/03 01:35:05;;;;;;;15.25;10.93;;;;;;;;;;5022443;28;20128;-58
2021/03/03 01:38:04;;;;;;;12.93;10.75;;;;;;;;;;5035201;28;20026;-58
2021/03/03 01:40:29;;;;;;;17.35;12.13;;;;;;;;;;5034769;28;20463;-59
2021/03/03 01:43:07;;;;;;;17.48;11.57;;;;;;;;;;5035553;28;20522;-58
2021/03/03 01:45:47;;;;;;;21.88;12.23;;;;;;;;;;5035635;28;20451;-59
2021/03/03 01:48:34;;;;;;;15.83;12.00;;;;;;;;;;5035236;28;20511;-59
2021/03/03 01:51:08;;;;;;;16.48;12.48;;;;;;;;;;5034965;28;20586;-59
2021/03/03 01:53:37;;;;;;;12.50;10.90;;;;;;;;;;5035182;28;20033;-59
2021/03/03 01:56:21;;;;;;;18.73;11.40;;;;;;;;;;5034458;28;20021;-58
2021/03/03 01:59:02;;;;;;;21.88;12.80;;;;;;;;;;5035386;28;20399;-58
2021/03/03 02:01:37;;;;;;;15.02;12.40;;;;;;;;;;5034435;28;20084;-58
2021/03/03 02:04:13;;;;;;;17.95;11.80;;;;;;;;;;5034623;28;20043;-57
2021/03/03 02:07:08;;;;;;;16.05;11.70;;;;;;;;;;5035257;28;20100;-57
2021/03/03 02:10:01;;;;;;;18.88;11.25;;;;;;;;;;5029510;28;20034;-58
2021/03/03 02:16:14;;;;;;;16.25;12.18;;;;;;;;;;4954426;28;20393;-59
2021/03/03 02:18:49;;;;;;;20.30;12.25;;;;;;;;;;5034431;28;20030;-58
2021/03/03 02:21:34;;;;;;;20.40;11.70;;;;;;;;;;5034512;28;20556;-57
2021/03/03 02:24:09;;;;;;;19.15;12.57;;;;;;;;;;5017440;28;20072;-59
2021/03/03 02:26:45;;;;;;;17.08;11.73;;;;;;;;;;5034951;28;20349;-58
2021/03/03 02:29:19;;;;;;;16.77;12.07;;;;;;;;;;4994737;28;20052;-58
2021/03/03 02:31:58;;;;;;;17.60;12.20;;;;;;;;;;5017395;28;20117;-59
2021/03/03 02:34:38;;;;;;;22.20;12.00;;;;;;;;;;5032930;28;20038;-59
2021/03/03 02:37:31;;;;;;;22.40;13.40;;;;;;;;;;5035038;28;20056;-59
2021/03/03 02:40:26;;;;;;;21.52;13.50;;;;;;;;;;5004244;28;20060;-59
2021/03/03 02:42:57;;;;;;;16.70;11.43;;;;;;;;;;5035328;28;20044;-59
2021/03/03 02:45:37;;;;;;;16.08;11.48;;;;;;;;;;5034753;28;20030;-58
2021/03/03 02:51:27;;;;;;;;;;;;;;;;;;;;;
2021/03/03 02:53:54;;;;;;;17.77;12.48;;;;;;;;;;5031273;28;20033;-58
2021/03/03 02:56:38;;;;;;;17.95;12.25;;;;;;;;;;5015584;28;20107;-59
2021/03/03 02:59:16;;;;;;;18.00;10.75;;;;;;;;;;5033783;28;20028;-58
2021/03/03 03:01:49;;;;;;;24.80;13.23;;;;;;;;;;5034024;28;20451;-59
2021/03/03 03:04:27;;;;;;;25.45;12.93;;;;;;;;;;5034501;28;20018;-58
2021/03/03 03:07:29;;;;;;;16.02;12.43;;;;;;;;;;5034655;28;20471;-59
2021/03/03 03:10:12;;;;;;;15.07;11.43;;;;;;;;;;5005461;28;20030;-59
2021/03/03 03:13:07;;;;;;;19.60;13.02;;;;;;;;;;5034682;28;20021;-59
2021/03/03 03:16:05;;;;;;;19.58;12.98;;;;;;;;;;5030036;28;20034;-58
2021/03/03 03:22:14;;;;;;;20.25;11.95;;;;;;;;;;5019981;28;20038;-59
2021/03/03 03:24:48;;;;;;;22.05;13.38;;;;;;;;;;5034190;28;20033;-59
2021/03/03 03:27:23;;;;;;;27.13;12.63;;;;;;;;;;4999369;28;20057;-58
2021/03/03 03:29:58;;;;;;;15.48;12.30;;;;;;;;;;5027483;28;20084;-58
2021/03/03 03:35:47;;;;;;;21.10;12.45;;;;;;;;;;4991885;28;20033;-58
2021/03/03 03:38:28;;;;;;;22.50;13.15;;;;;;;;;;5034298;28;20036;-58
2021/03/03 03:41:19;;;;;;;20.45;12.32;;;;;;;;;;5025902;28;20506;-58
2021/03/03 03:44:02;;;;;;;19.95;12.80;;;;;;;;;;5038207;28;20160;-59
2021/03/03 03:46:45;;;;;;;16.55;12.55;;;;;;;;;;5017356;28;20037;-59
2021/03/03 03:49:32;;;;;;;19.58;12.95;;;;;;;;;;5038002;28;20021;-59
2021/03/03 03:52:06;;;;;;;19.50;12.18;;;;;;;;;;5038155;28;20034;-58
2021/03/03 03:54:57;;;;;;;24.20;11.73;;;;;;;;;;5019335;28;20025;-59
2021/03/03 03:57:40;;;;;;;16.65;12.23;;;;;;;;;;5018022;28;20034;-59
2021/03/03 04:03:14;;;;;;;19.83;13.48;;;;;;;;;;5037351;28;20069;-58
2021/03/03 04:05:47;;;;;;;17.97;12.63;;;;;;;;;;5037261;28;20043;-58
2021/03/03 04:08:17;;;;;;;18.58;12.70;;;;;;;;;;5037834;28;20113;-57
2021/03/03 04:10:44;;;;;;;22.52;14.10;;;;;;;;;;5037538;28;20359;-57
2021/03/03 04:13:20;;;;;;;19.55;12.73;;;;;;;;;;5019404;28;20034;-59
2021/03/03 04:19:01;;;;;;;14.48;12.02;;;;;;;;;;5026317;28;20060;-58
2021/03/03 04:21:49;;;;;;;18.95;11.88;;;;;;;;;;5036851;28;20104;-59
2021/03/03 04:24:45;;;;;;;19.02;11.90;;;;;;;;;;5037140;28;20109;-59
2021/03/03 04:27:23;;;;;;;17.10;13.60;;;;;;;;;;5035978;28;20045;-58
2021/03/03 04:30:22;;;;;;;;;;;;;;;;;;;;;
2021/03/03 04:36:04;;;;;;;18.38;12.38;;;;;;;;;;5033106;28;20029;-58
2021/03/03 04:38:36;;;;;;;16.92;11.43;;;;;;;;;;5019810;28;20119;-58
2021/03/03 04:41:37;;;;;;;19.35;12.75;;;;;;;;;;5017632;28;20050;-58
2021/03/03 04:44:17;;;;;;;18.27;13.57;;;;;;;;;;5018486;28;20036;-57
2021/03/03 04:46:46;;;;;;;18.52;13.82;;;;;;;;;;5036005;28;20456;-58
2021/03/03 04:49:23;;;;;;;17.47;12.13;;;;;;;;;;5035718;28;20360;-58
2021/03/03 04:52:05;;;;;;;18.20;11.38;;;;;;;;;;5035601;28;20037;-58
2021/03/03 04:54:41;;;;;;;;;;;;;;;;;;;;;
2021/03/03 04:57:17;;;;;;;16.70;13.43;;;;;;;;;;5035660;28;20375;-58
2021/03/03 05:05:58;;;;;;;14.07;11.68;;;;;;;;;;5028537;28;20025;-59
2021/03/03 05:08:47;;;;;;;16.57;13.47;;;;;;;;;;5035094;28;20033;-58
2021/03/03 05:14:27;;;;;;;14.90;10.75;;;;;;;;;;5025680;28;20029;-58
2021/03/03 05:20:30;;;;;;;25.00;12.48;;;;;;;;;;5035357;28;20037;-58
2021/03/03 05:23:08;;;;;;;18.08;14.10;;;;;;;;;;5018350;28;20029;-58
2021/03/03 05:26:01;;;;;;;18.23;12.93;;;;;;;;;;5017123;28;20037;-58
2021/03/03 05:28:33;;;;;;;17.10;12.93;;;;;;;;;;5024662;28;20038;-58
2021/03/03 05:31:15;;;;;;;;;;;;;;;;;;;;;
2021/03/03 05:33:48;;;;;;;16.80;11.57;;;;;;;;;;5026915;28;20044;-59
2021/03/03 05:36:37;;;;;;;17.95;12.65;;;;;;;;;;5034784;28;20083;-58
2021/03/03 05:39:17;;;;;;;18.92;13.05;;;;;;;;;;5017907;28;20382;-58
2021/03/03 05:42:08;;;;;;;23.13;13.97;;;;;;;;;;5034974;28;20136;-58
2021/03/03 05:44:44;;;;;;;17.23;13.20;;;;;;;;;;5034021;28;20033;-59
2021/03/03 05:47:20;;;;;;;20.23;12.60;;;;;;;;;;5035313;28;20116;-58
2021/03/03 05:53:22;;;;;;;15.68;11.18;;;;;;;;;;5007656;28;20030;-59
2021/03/03 05:55:49;;;;;;;19.70;12.70;;;;;;;;;;5034947;28;20029;-57
2021/03/03 05:58:32;;;;;;;22.30;13.63;;;;;;;;;;5017620;28;20025;-57
2021/03/03 06:01:16;;;;;;;18.47;11.80;;;;;;;;;;5035040;28;20407;-58
2021/03/03 06:04:16;;;;;;;14.52;11.82;;;;;;;;;;5033267;28;20042;-58
2021/03/03 06:06:46;;;;;;;17.25;11.80;;;;;;;;;;4966750;28;20093;-57
2021/03/03 06:12:23;;;;;;;15.82;12.85;;;;;;;;;;5035224;28;20041;-58
2021/03/03 06:15:12;;;;;;;21.73;13.43;;;;;;;;;;5035675;28;20105;-59
2021/03/03 06:17:57;;;;;;;20.67;12.60;;;;;;;;;;5036068;28;20487;-58
2021/03/03 06:20:37;;;;;;;14.87;11.80;;;;;;;;;;5035728;28;20030;-58
2021/03/03 06:23:35;;;;;;;21.43;13.60;;;;;;;;;;5035472;28;20105;-58
2021/03/03 06:26:29;;;;;;;14.70;10.73;;;;;;;;;;5020305;28;20041;-58
2021/03/03 06:29:14;;;;;;;19.73;12.07;;;;;;;;;;5017417;28;20042;-56
2021/03/03 06:38:13;;;;;;;20.63;13.37;;;;;;;;;;4974475;28;20038;-57
2021/03/03 06:41:09;;;;;;;;;;;;;;;;;;;;;
2021/03/03 06:43:56;;;;;;;18.63;13.97;;;;;;;;;;4974176;28;20095;-58
2021/03/03 06:50:05;;;;;;;15.60;13.30;;;;;;;;;;5035772;28;20546;-58
2021/03/03 06:52:59;;;;;;;17.97;13.37;;;;;;;;;;5006427;28;20065;-57
2021/03/03 06:55:48;;;;;;;20.97;12.53;;;;;;;;;;5033057;28;20030;-58
2021/03/03 06:58:33;;;;;;;20.15;14.13;;;;;;;;;;5002126;28;20040;-57
2021/03/03 07:01:15;;;;;;;18.48;13.32;;;;;;;;;;5012193;28;20042;-58
2021/03/03 07:12:56;;;;;;;15.67;12.23;;;;;;;;;;4973865;28;20027;-58
2021/03/03 07:15:43;;;;;;;24.05;13.27;;;;;;;;;;5022120;28;20037;-57
2021/03/03 07:18:30;;;;;;;18.65;12.98;;;;;;;;;;5038338;28;20021;-59
2021/03/03 07:21:04;;;;;;;20.52;14.13;;;;;;;;;;5037914;28;20075;-58
2021/03/03 07:27:05;;;;;;;19.45;12.52;;;;;;;;;;5025257;28;20073;-57
2021/03/03 07:35:23;;;;;;;13.07;11.68;;;;;;;;;;5023691;28;20112;-58
2021/03/03 07:40:57;;;;;;;16.30;11.32;;;;;;;;;;5023434;28;20175;-59
2021/03/03 07:44:02;;;;;;;15.43;13.32;;;;;;;;;;5037941;28;20040;-59
2021/03/03 07:46:51;;;;;;;14.65;11.77;;;;;;;;;;5031287;28;20029;-56
2021/03/03 07:49:49;;;;;;;19.38;12.25;;;;;;;;;;5011593;28;20079;-58
2021/03/03 07:52:28;;;;;;;18.42;12.45;;;;;;;;;;5038337;28;20033;-57
2021/03/03 07:54:58;;;;;;;15.48;12.00;;;;;;;;;;5037998;28;20111;-58
2021/03/03 08:00:44;;;;;;;18.33;14.18;;;;;;;;;;5023954;28;20037;-57
2021/03/03 08:03:54;;;;;;;25.75;14.88;;;;;;;;;;5037079;28;20034;-57
2021/03/03 08:06:29;;;;;;;20.73;12.68;;;;;;;;;;5036171;28;20387;-57
2021/03/03 08:09:42;;;;;;;18.95;12.90;;;;;;;;;;5019082;28;20028;-58
2021/03/03 08:12:24;;;;;;;17.40;11.80;;;;;;;;;;5038077;28;20383;-57
2021/03/03 08:15:18;;;;;;;19.25;12.98;;;;;;;;;;5018373;28;20372;-59
2021/03/03 08:20:58;;;;;;;19.23;12.38;;;;;;;;;;5019334;28;20041;-58
2021/03/03 08:23:43;;;;;;;17.17;13.70;;;;;;;;;;5019113;28;20406;-58
2021/03/03 08:26:31;;;;;;;15.77;11.77;;;;;;;;;;5036939;28;20364;-58
2021/03/03 08:29:16;;;;;;;18.83;12.55;;;;;;;;;;5036293;28;20021;-58
2021/03/03 08:31:54;;;;;;;18.52;12.88;;;;;;;;;;5036737;28;20033;-58
2021/03/03 08:34:56;;;;;;;17.98;11.57;;;;;;;;;;5037158;28;20110;-58
2021/03/03 08:37:49;;;;;;;15.63;12.93;;;;;;;;;;5037511;28;20045;-57
2021/03/03 08:40:41;;;;;;;14.88;12.52;;;;;;;;;;5036215;28;20025;-58
2021/03/03 08:43:30;;;;;;;16.58;12.50;;;;;;;;;;5017284;28;20368;-58
2021/03/03 08:46:01;;;;;;;18.77;13.07;;;;;;;;;;5015347;28;20109;-58
2021/03/03 08:49:00;;;;;;;16.65;12.45;;;;;;;;;;5016744;28;20407;-58
2021/03/03 08:51:51;;;;;;;21.30;13.10;;;;;;;;;;4998686;28;20041;-59
2021/03/03 08:57:43;;;;;;;20.35;15.00;;;;;;;;;;4979935;28;20047;-59
2021/03/03 09:00:38;;;;;;;16.70;12.50;;;;;;;;;;5016186;28;20105;-56
2021/03/03 09:03:10;;;;;;;16.42;12.65;;;;;;;;;;4998788;28;20491;-59
2021/03/03 09:06:06;;;;;;;;;;;;;;;;;;;;;
2021/03/03 09:08:54;;;;;;;;;;;;;;;;;;;;;
2021/03/03 09:14:17;;;;;;;14.82;11.25;;;;;;;;;;5010911;28;20041;-58
2021/03/03 09:17:13;;;;;;;17.02;12.35;;;;;;;;;;5016015;28;20029;-59
2021/03/03 09:19:44;;;;;;;16.38;11.23;;;;;;;;;;4999016;28;20469;-57
2021/03/03 09:22:57;;;;;;;13.93;11.60;;;;;;;;;;5016789;28;20041;-57
2021/03/03 09:25:45;;;;;;;15.27;11.80;;;;;;;;;;5015796;28;20468;-58
2021/03/03 09:28:23;;;;;;;15.07;12.77;;;;;;;;;;5015761;28;20109;-58
2021/03/03 09:31:07;;;;;;;18.70;12.90;;;;;;;;;;5015299;28;20120;-58
2021/03/03 09:37:00;;;;;;;15.73;12.23;;;;;;;;;;5011694;28;20033;-57
2021/03/03 09:39:45;;;;;;;18.65;12.32;;;;;;;;;;4993000;28;20117;-59
2021/03/03 09:42:18;;;;;;;18.25;13.15;;;;;;;;;;5029997;28;20195;-59
2021/03/03 09:45:10;;;;;;;21.52;14.10;;;;;;;;;;5035697;28;20130;-58
2021/03/03 09:48:04;;;;;;;21.88;12.77;;;;;;;;;;5035461;28;20468;-58
2021/03/03 09:50:40;;;;;;;17.23;11.60;;;;;;;;;;5033199;28;20045;-59
2021/03/03 09:53:20;;;;;;;14.27;11.60;;;;;;;;;;5034717;28;20014;-57
2021/03/03 09:56:20;;;;;;;17.45;12.02;;;;;;;;;;5035454;28;20116;-58
2021/03/03 09:58:55;;;;;;;20.67;13.07;;;;;;;;;;4951844;28;20053;-59
2021/03/03 10:01:22;;;;;;;16.92;12.30;;;;;;;;;;4984001;28;20537;-58
2021/03/03 10:03:50;;;;;;;13.38;11.75;;;;;;;;;;5017694;28;20352;-59
2021/03/03 10:06:26;;;;;;;20.42;14.02;;;;;;;;;;5013205;28;20061;-59
2021/03/03 10:09:02;;;;;;;;;;;;;;;;;;;;;
2021/03/03 10:11:41;;;;;;;16.65;12.88;;;;;;;;;;5019118;28;20105;-58
2021/03/03 10:17:03;;;;;;;17.42;11.27;;;;;;;;;;5030030;28;20056;-58
2021/03/03 10:19:46;;;;;;;13.10;11.60;;;;;;;;;;5034193;28;20038;-57
2021/03/03 10:25:16;;;;;;;13.07;10.80;;;;;;;;;;5034747;28;20040;-58
2021/03/03 10:28:09;;;;;;;19.38;13.63;;;;;;;;;;5034361;28;20077;-58
2021/03/03 10:30:42;;;;;;;16.15;12.70;;;;;;;;;;4996745;28;20068;-59
2021/03/03 10:36:41;;;;;;;19.83;11.85;;;;;;;;;;5034234;28;20030;-58
2021/03/03 10:39:34;;;;;;;15.90;12.15;;;;;;;;;;5034733;28;20045;-59
2021/03/03 10:45:45;;;;;;;18.30;12.20;;;;;;;;;;5023542;28;20041;-58
2021/03/03 10:48:53;;;;;;;12.68;11.35;;;;;;;;;;5033859;28;20055;-58
2021/03/03 10:51:20;;;;;;;12.88;10.85;;;;;;;;;;4931928;29;20051;-58
2021/03/03 10:54:11;;;;;;;;;;;;;;;;;;;;;
2021/03/03 10:56:38;;;;;;;11.57;10.45;;;;;;;;;;4998275;28;20451;-59
2021/03/03 10:59:22;;;;;;;16.30;11.77;;;;;;;;;;5034530;28;20452;-59
2021/03/03 11:01:57;;;;;;;14.90;11.57;;;;;;;;;;5033309;28;20109;-59
2021/03/03 11:04:41;;;;;;;13.88;11.45;;;;;;;;;;5033757;28;20017;-59
2021/03/03 11:07:27;;;;;;;12.75;10.38;;;;;;;;;;5016011;28;20025;-59
2021/03/03 11:10:07;;;;;;;17.40;11.35;;;;;;;;;;5033833;28;20021;-59
2021/03/03 11:12:46;;;;;;;15.33;11.23;;;;;;;;;;5034344;28;20025;-58
2021/03/03 11:15:15;;;;;;;15.25;11.82;;;;;;;;;;5015993;28;20036;-59
2021/03/03 11:18:05;;;;;;;14.15;12.27;;;;;;;;;;5016649;28;20033;-59
2021/03/03 11:20:37;;;;;;;13.23;10.77;;;;;;;;;;5032346;28;20065;-59
2021/03/03 11:23:16;;;;;;;;;;;;;;;;;;;;;
2021/03/03 11:25:46;;;;;;;17.33;11.95;;;;;;;;;;5034089;28;20042;-59
2021/03/03 11:28:42;;;;;;;10.85;9.65;;;;;;;;;;5011589;28;20064;-59
2021/03/03 11:31:15;;;;;;;18.73;11.48;;;;;;;;;;5031756;28;20041;-59
2021/03/03 11:33:44;;;;;;;12.20;10.35;;;;;;;;;;5033841;28;20034;-59
2021/03/03 11:36:33;;;;;;;14.98;11.63;;;;;;;;;;5033073;28;20056;-59
2021/03/03 11:41:58;;;;;;;;;;;;;;;;;;;;;
2021/03/03 11:44:27;;;;;;;12.77;10.20;;;;;;;;;;5030571;28;20071;-59
2021/03/03 11:47:03;;;;;;;14.43;10.95;;;;;;;;;;5033417;28;20345;-58
2021/03/03 11:49:53;;;;;;;15.45;11.13;;;;;;;;;;5016226;28;20452;-59
2021/03/03 11:52:37;;;;;;;12.73;10.55;;;;;;;;;;5030610;28;20038;-59
2021/03/03 11:55:09;;;;;;;12.05;10.75;;;;;;;;;;5032005;28;20097;-59
2021/03/03 11:57:57;;;;;;;14.13;11.45;;;;;;;;;;5034002;28;20021;-59
2021/03/03 12:00:24;;;;;;;16.42;11.32;;;;;;;;;;5033381;28;20022;-59
2021/03/03 12:02:56;;;;;;;12.80;11.13;;;;;;;;;;5034633;28;20041;-59
2021/03/03 12:05:23;;;;;;;15.65;10.55;;;;;;;;;;5018899;28;20052;-59
2021/03/03 12:08:10;;;;;;;14.80;12.10;;;;;;;;;;5018362;28;20056;-59
2021/03/03 12:10:42;;;;;;;13.18;11.80;;;;;;;;;;5018069;28;20124;-59
2021/03/03 12:13:23;;;;;;;14.30;11.18;;;;;;;;;;5036406;28;20486;-57
2021/03/03 12:15:56;;;;;;;13.75;11.00;;;;;;;;;;5036119;28;20033;-59
2021/03/03 12:18:31;;;;;;;14.05;10.88;;;;;;;;;;5036721;28;20030;-59
2021/03/03 12:21:20;;;;;;;12.13;10.32;;;;;;;;;;5037281;28;20452;-58
2021/03/03 12:23:52;;;;;;;13.38;11.75;;;;;;;;;;5018042;28;20124;-59
2021/03/03 12:26:32;;;;;;;13.07;10.50;;;;;;;;;;5035993;28;20026;-59
2021/03/03 12:31:59;;;;;;;13.73;11.50;;;;;;;;;;5034947;28;20034;-58
2021/03/03 12:34:37;;;;;;;14.48;11.70;;;;;;;;;;5036523;28;20379;-59
2021/03/03 12:37:03;;;;;;;15.55;11.00;;;;;;;;;;5017948;28;20520;-59
2021/03/03 12:39:38;;;;;;;14.52;10.43;;;;;;;;;;5035624;28;20494;-59
2021/03/03 12:42:16;;;;;;;16.00;10.32;;;;;;;;;;5035865;28;20455;-59
2021/03/03 12:47:41;;;;;;;15.20;10.48;;;;;;;;;;5019217;28;20033;-59
2021/03/03 12:50:14;;;;;;;19.52;10.35;;;;;;;;;;5036388;28;20026;-59
2021/03/03 12:52:49;;;;;;;14.20;9.70;;;;;;;;;;5018549;28;20036;-59
2021/03/03 12:55:21;;;;;;;14.20;9.60;;;;;;;;;;5035248;28;20537;-59
2021/03/03 12:57:57;;;;;;;12.40;10.15;;;;;;;;;;5035694;28;20026;-59
2021/03/03 13:00:33;;;;;;;12.27;9.77;;;;;;;;;;5035880;28;20025;-59
2021/03/03 13:03:03;;;;;;;16.45;9.95;;;;;;;;;;5036167;28;20060;-59
2021/03/03 13:05:32;;;;;;;14.15;10.15;;;;;;;;;;5036032;28;20043;-59
2021/03/03 13:08:04;;;;;;;11.15;9.77;;;;;;;;;;5017580;28;20115;-59
2021/03/03 13:10:31;;;;;;;12.68;10.57;;;;;;;;;;5035375;28;20033;-59
2021/03/03 13:12:57;;;;;;;13.07;10.50;;;;;;;;;;5017812;28;20368;-59
2021/03/03 13:15:32;;;;;;;17.60;10.77;;;;;;;;;;5034826;28;20523;-59
2021/03/03 13:18:01;;;;;;;13.40;9.05;;;;;;;;;;5035807;28;20106;-59
2021/03/03 13:20:37;;;;;;;12.10;9.23;;;;;;;;;;5016953;28;20463;-59
2021/03/03 13:23:03;;;;;;;18.33;9.93;;;;;;;;;;5017787;28;20037;-59
2021/03/03 13:25:41;;;;;;;15.13;9.35;;;;;;;;;;5035084;28;20060;-59
2021/03/03 13:28:42;;;;;;;15.15;9.55;;;;;;;;;;5035114;28;20056;-59
2021/03/03 13:31:12;;;;;;;13.73;9.95;;;;;;;;;;5034959;28;20041;-59
2021/03/03 13:33:38;;;;;;;18.15;10.13;;;;;;;;;;5035749;28;20033;-59
2021/03/03 13:36:07;;;;;;;14.00;10.02;;;;;;;;;;5034724;28;20113;-59
2021/03/03 13:38:39;;;;;;;12.32;9.43;;;;;;;;;;5016583;28;20065;-59
2021/03/03 13:41:13;;;;;;;14.10;8.80;;;;;;;;;;5035174;28;20474;-59
2021/03/03 13:43:53;;;;;;;15.13;9.75;;;;;;;;;;5034631;28;20056;-59
2021/03/03 13:46:21;;;;;;;13.32;8.55;;;;;;;;;;5035000;28;20110;-59
2021/03/03 13:48:49;;;;;;;11.48;9.13;;;;;;;;;;5034355;28;20083;-59
2021/03/03 13:51:16;;;;;;;11.68;8.93;;;;;;;;;;5012428;28;20044;-59
2021/03/03 13:53:47;;;;;;;12.48;10.68;;;;;;;;;;5016801;28;20097;-59
2021/03/03 13:56:24;;;;;;;13.90;10.98;;;;;;;;;;5016533;28;20431;-59
2021/03/03 13:58:56;;;;;;;12.90;9.77;;;;;;;;;;5000895;28;20087;-59
2021/03/03 14:01:26;;;;;;;17.42;11.45;;;;;;;;;;5033643;28;20029;-59
2021/03/03 14:04:00;;;;;;;15.10;11.27;;;;;;;;;;5034956;28;20084;-59
2021/03/03 14:06:35;;;;;;;15.77;10.73;;;;;;;;;;5034107;28;20467;-59
2021/03/03 14:09:08;;;;;;;16.55;11.60;;;;;;;;;;5034575;28;20033;-59
2021/03/03 14:11:47;;;;;;;17.20;11.45;;;;;;;;;;5034097;28;20072;-59
2021/03/03 14:14:16;;;;;;;17.85;11.60;;;;;;;;;;5034800;28;20075;-57
2021/03/03 14:16:59;;;;;;;17.30;11.68;;;;;;;;;;5034364;28;20021;-57
2021/03/03 14:19:31;;;;;;;13.68;11.05;;;;;;;;;;5027215;28;20031;-59
2021/03/03 14:22:03;;;;;;;14.88;12.50;;;;;;;;;;5015919;28;20543;-59
2021/03/03 14:24:32;;;;;;;14.88;10.68;;;;;;;;;;5015486;28;20037;-58
2021/03/03 14:27:01;;;;;;;17.20;11.82;;;;;;;;;;5033595;28;20025;-58
2021/03/03 14:29:32;;;;;;;15.15;10.95;;;;;;;;;;5016931;28;20451;-59
2021/03/03 14:32:04;;;;;;;16.58;10.63;;;;;;;;;;5015019;28;20033;-59
2021/03/03 14:34:33;;;;;;;11.07;9.93;;;;;;;;;;5034171;28;20029;-59
2021/03/03 14:37:00;;;;;;;14.02;10.85;;;;;;;;;;5015887;28;20513;-59
2021/03/03 14:39:30;;;;;;;14.63;10.00;;;;;;;;;;5033020;28;20014;-58
2021/03/03 14:41:59;;;;;;;15.20;10.10;;;;;;;;;;5015409;28;20037;-59
2021/03/03 14:44:36;;;;;;;17.92;10.02;;;;;;;;;;5016259;28;20045;-59
2021/03/03 14:47:03;;;;;;;18.20;10.25;;;;;;;;;;5033633;28;20060;-58
2021/03/03 14:49:31;;;;;;;11.85;9.35;;;;;;;;;;5033273;28;20471;-59
2021/03/03 14:51:58;;;;;;;10.45;9.13;;;;;;;;;;5034104;28;20033;-59
2021/03/03 14:54:24;;;;;;;17.05;10.07;;;;;;;;;;5033814;28;20025;-59
2021/03/03 14:56:50;;;;;;;15.13;11.27;;;;;;;;;;5033854;28;20367;-58
2021/03/03 14:59:19;;;;;;;11.30;9.77;;;;;;;;;;5033300;28;20041;-59
2021/03/03 15:01:45;;;;;;;13.13;9.38;;;;;;;;;;5015490;28;20037;-58
2021/03/03 15:04:17;;;;;;;21.95;12.05;;;;;;;;;;5033563;28;20049;-59
2021/03/03 15:06:43;;;;;;;12.70;9.98;;;;;;;;;;5015846;28;20112;-59
2021/03/03 15:09:09;;;;;;;20.52;11.40;;;;;;;;;;5033656;28;20060;-59
2021/03/03 15:11:38;;;;;;;14.05;10.70;;;;;;;;;;5033284;28;20472;-59
2021/03/03 15:14:07;;;;;;;14.52;10.43;;;;;;;;;;5033136;28;20033;-59
2021/03/03 15:16:39;;;;;;;16.10;10.52;;;;;;;;;;5033277;28;20026;-59
2021/03/03 15:19:12;;;;;;;12.23;9.00;;;;;;;;;;5034318;28;20379;-59
2021/03/03 15:21:39;;;;;;;14.30;11.07;;;;;;;;;;5016535;28;20136;-58
2021/03/03 15:24:06;;;;;;;17.67;11.10;;;;;;;;;;5015596;28;20025;-59
2021/03/03 15:26:44;;;;;;;17.00;10.30;;;;;;;;;;5033926;28;20025;-58
2021/03/03 15:29:10;;;;;;;18.33;10.48;;;;;;;;;;5033970;28;20037;-58
2021/03/03 15:31:36;;;;;;;15.80;10.93;;;;;;;;;;5032954;28;20033;-59
2021/03/03 15:34:03;;;;;;;15.40;11.25;;;;;;;;;;5033470;28;20068;-58
2021/03/03 15:36:29;;;;;;;20.40;13.30;;;;;;;;;;5015099;28;20506;-59
2021/03/03 15:38:59;;;;;;;15.93;12.07;;;;;;;;;;5036041;28;20025;-58
2021/03/03 15:41:28;;;;;;;15.93;12.32;;;;;;;;;;5036845;28;20108;-58
2021/03/03 15:43:57;;;;;;;15.45;12.07;;;;;;;;;;5036906;28;20159;-59
2021/03/03 15:46:24;;;;;;;16.20;12.80;;;;;;;;;;5003138;28;20453;-59
2021/03/03 15:48:50;;;;;;;18.67;10.82;;;;;;;;;;5002588;28;20387;-57
2021/03/03 15:51:18;;;;;;;15.25;12.77;;;;;;;;;;5036835;28;20034;-59
2021/03/03 15:53:46;;;;;;;13.32;11.15;;;;;;;;;;5018634;28;20084;-58
2021/03/03 15:56:12;;;;;;;13.30;10.32;;;;;;;;;;5037254;28;20026;-59
2021/03/03 15:58:41;;;;;;;14.65;12.13;;;;;;;;;;5019981;28;20129;-59
2021/03/03 16:01:10;;;;;;;15.18;12.98;;;;;;;;;;5018750;28;20033;-59
2021/03/03 16:03:40;;;;;;;20.30;10.95;;;;;;;;;;5037192;28;20056;-58
2021/03/03 16:06:26;;;;;;;14.27;10.85;;;;;;;;;;5018566;28;20535;-58
2021/03/03 16:08:58;;;;;;;24.42;13.35;;;;;;;;;;5036726;28;20510;-58
2021/03/03 16:11:31;;;;;;;19.65;11.95;;;;;;;;;;5018681;28;20040;-58
2021/03/03 16:14:00;;;;;;;15.68;12.35;;;;;;;;;;5036997;28;20028;-58
2021/03/03 16:16:27;;;;;;;12.32;11.07;;;;;;;;;;5018354;28;20025;-59
2021/03/03 16:18:55;;;;;;;18.70;12.13;;;;;;;;;;5018278;28;20055;-59
2021/03/03 16:21:22;;;;;;;15.38;10.63;;;;;;;;;;5018400;28;20053;-59
2021/03/03 16:23:48;;;;;;;15.55;11.00;;;;;;;;;;5036896;28;20026;-59
2021/03/03 16:26:15;;;;;;;19.85;13.30;;;;;;;;;;5036495;28;20053;-59
2021/03/03 16:28:41;;;;;;;18.52;13.02;;;;;;;;;;5035927;28;20086;-58
2021/03/03 16:31:07;;;;;;;19.20;12.82;;;;;;;;;;5017760;28;20505;-59
2021/03/03 16:33:36;;;;;;;17.48;12.90;;;;;;;;;;5018123;28;20112;-59
2021/03/03 16:36:18;;;;;;;15.27;12.18;;;;;;;;;;5036493;28;20022;-59
2021/03/03 16:38:49;;;;;;;16.33;13.82;;;;;;;;;;5036479;28;20411;-58
2021/03/03 16:41:18;;;;;;;18.45;13.80;;;;;;;;;;5018124;28;20124;-58
2021/03/03 16:43:55;;;;;;;19.25;13.70;;;;;;;;;;5035560;28;20088;-59
2021/03/03 16:46:21;;;;;;;18.48;14.00;;;;;;;;;;5035833;28;20029;-58
2021/03/03 16:48:50;;;;;;;20.75;15.07;;;;;;;;;;5035690;28;20022;-58
2021/03/03 16:51:16;;;;;;;16.23;13.77;;;;;;;;;;5010366;28;20435;-58
2021/03/03 16:53:45;;;;;;;18.38;13.38;;;;;;;;;;5035950;28;20022;-57
2021/03/03 16:56:14;;;;;;;17.25;14.35;;;;;;;;;;5036522;28;20448;-59
2021/03/03 16:58:41;;;;;;;19.20;14.32;;;;;;;;;;5035554;28;20021;-59
2021/03/03 17:01:11;;;;;;;19.85;13.75;;;;;;;;;;5035776;28;20033;-59
2021/03/03 17:03:40;;;;;;;18.88;13.35;;;;;;;;;;5035287;28;20104;-58
2021/03/03 17:06:06;;;;;;;14.38;12.75;;;;;;;;;;5035153;28;20096;-59
2021/03/03 17:08:35;;;;;;;19.23;14.75;;;;;;;;;;5014229;28;20113;-58
2021/03/03 17:11:04;;;;;;;18.42;14.07;;;;;;;;;;5033373;28;20033;-59
2021/03/03 17:13:35;;;;;;;20.25;14.23;;;;;;;;;;5017517;28;20025;-59
2021/03/03 17:16:04;;;;;;;16.80;12.50;;;;;;;;;;5035065;28;20064;-59
2021/03/03 17:18:30;;;;;;;18.95;13.75;;;;;;;;;;5018017;28;20033;-59
2021/03/03 17:20:57;;;;;;;16.80;12.63;;;;;;;;;;5016938;28;20062;-58
2021/03/03 17:23:23;;;;;;;23.80;14.48;;;;;;;;;;5000949;28;20030;-58
2021/03/03 17:25:51;;;;;;;17.90;13.63;;;;;;;;;;5017551;28;20037;-58
2021/03/03 17:28:18;;;;;;;14.85;13.23;;;;;;;;;;5034818;28;20480;-58
2021/03/03 17:30:52;;;;;;;16.30;12.07;;;;;;;;;;5034754;28;20034;-59
2021/03/03 17:33:18;;;;;;;16.52;11.50;;;;;;;;;;5035014;28;20030;-58